sensor_id;sensor_type;location;lat;lon;timestamp;P1;durP1;ratioP1;P2;durP2;ratioP2
43664;SDS011;29263;48.172;11.484;2022-10-31T00:01:15;14.07;;;4.88;;
43664;SDS011;29263;48.172;11.484;2022-10-31T00:03:41;12.60;;;4.90;;
43664;SDS011;29263;48.172;11.484;2022-10-31T00:06:07;12.63;;;4.80;;
43664;SDS011;29263;48.172;11.484;2022-10-31T00:08:32;9.70;;;4.37;;
43664;SDS011;29263;48.172;11.484;2022-10-31T00:10:58;10.93;;;4.60;;
43664;SDS011;29263;48.172;11.484;2022-10-31T00:13:24;10.40;;;4.73;;
43664;SDS011;29263;48.172;11.484;2022-10-31T00:15:49;15.17;;;4.13;;
43664;SDS011;29263;48.172;11.484;2022-10-31T00:18:15;13.33;;;4.90;;
43664;SDS011;29263;48.172;11.484;2022-10-31T00:20:41;18.00;;;5.73;;
43664;SDS011;29263;48.172;11.484;2022-10-31T00:23:06;9.47;;;4.67;;
43664;SDS011;29263;48.172;11.484;2022-10-31T00:25:33;11.23;;;4.57;;
43664;SDS011;29263;48.172;11.484;2022-10-31T00:28:00;13.60;;;5.00;;
43664;SDS011;29263;48.172;11.484;2022-10-31T00:30:27;18.53;;;4.73;;
43664;SDS011;29263;48.172;11.484;2022-10-31T00:32:52;10.70;;;5.03;;
43664;SDS011;29263;48.172;11.484;2022-10-31T00:35:18;12.83;;;4.67;;
43664;SDS011;29263;48.172;11.484;2022-10-31T00:37:43;15.50;;;4.57;;
43664;SDS011;29263;48.172;11.484;2022-10-31T00:40:09;7.53;;;4.43;;
43664;SDS011;29263;48.172;11.484;2022-10-31T00:42:35;13.30;;;4.23;;
43664;SDS011;29263;48.172;11.484;2022-10-31T00:45:01;14.47;;;5.47;;
43664;SDS011;29263;48.172;11.484;2022-10-31T00:47:26;11.37;;;4.13;;
43664;SDS011;29263;48.172;11.484;2022-10-31T00:49:52;8.33;;;4.40;;
43664;SDS011;29263;48.172;11.484;2022-10-31T00:52:18;8.10;;;3.70;;
43664;SDS011;29263;48.172;11.484;2022-10-31T00:54:43;11.53;;;4.80;;
43664;SDS011;29263;48.172;11.484;2022-10-31T00:57:09;12.90;;;4.20;;
43664;SDS011;29263;48.172;11.484;2022-10-31T00:59:34;11.03;;;5.27;;
43664;SDS011;29263;48.172;11.484;2022-10-31T01:02:00;8.60;;;4.47;;
43664;SDS011;29263;48.172;11.484;2022-10-31T01:04:25;12.80;;;3.93;;
43664;SDS011;29263;48.172;11.484;2022-10-31T01:06:51;12.27;;;4.13;;
43664;SDS011;29263;48.172;11.484;2022-10-31T01:09:17;9.87;;;4.43;;
43664;SDS011;29263;48.172;11.484;2022-10-31T01:11:42;11.67;;;4.03;;
43664;SDS011;29263;48.172;11.484;2022-10-31T01:14:08;12.03;;;3.90;;
43664;SDS011;29263;48.172;11.484;2022-10-31T01:16:35;12.90;;;4.83;;
43664;SDS011;29263;48.172;11.484;2022-10-31T01:19:00;6.33;;;3.73;;
43664;SDS011;29263;48.172;11.484;2022-10-31T01:21:27;12.13;;;4.23;;
43664;SDS011;29263;48.172;11.484;2022-10-31T01:23:54;12.70;;;4.10;;
43664;SDS011;29263;48.172;11.484;2022-10-31T01:26:21;10.00;;;3.53;;
43664;SDS011;29263;48.172;11.484;2022-10-31T01:28:54;7.20;;;3.63;;
43664;SDS011;29263;48.172;11.484;2022-10-31T01:31:23;6.50;;;3.40;;
43664;SDS011;29263;48.172;11.484;2022-10-31T01:36:27;13.13;;;4.23;;
43664;SDS011;29263;48.172;11.484;2022-10-31T01:41:25;6.77;;;3.17;;
43664;SDS011;29263;48.172;11.484;2022-10-31T01:43:59;13.75;;;3.53;;
43664;SDS011;29263;48.172;11.484;2022-10-31T01:46:28;7.43;;;3.67;;
43664;SDS011;29263;48.172;11.484;2022-10-31T01:48:57;9.27;;;3.50;;
43664;SDS011;29263;48.172;11.484;2022-10-31T01:51:29;5.20;;;3.33;;
43664;SDS011;29263;48.172;11.484;2022-10-31T01:54:00;6.63;;;3.63;;
43664;SDS011;29263;48.172;11.484;2022-10-31T01:56:31;9.13;;;3.50;;
43664;SDS011;29263;48.172;11.484;2022-10-31T01:58:58;10.60;;;3.77;;
43664;SDS011;29263;48.172;11.484;2022-10-31T02:01:26;10.20;;;3.63;;
43664;SDS011;29263;48.172;11.484;2022-10-31T02:03:52;8.13;;;3.63;;
43664;SDS011;29263;48.172;11.484;2022-10-31T02:07:02;11.43;;;2.93;;
43664;SDS011;29263;48.172;11.484;2022-10-31T02:09:11;8.57;;;3.60;;
43664;SDS011;29263;48.172;11.484;2022-10-31T02:11:39;8.53;;;3.47;;
43664;SDS011;29263;48.172;11.484;2022-10-31T02:14:07;10.95;;;4.32;;
43664;SDS011;29263;48.172;11.484;2022-10-31T02:16:32;11.03;;;3.87;;
43664;SDS011;29263;48.172;11.484;2022-10-31T02:18:58;8.33;;;3.20;;
43664;SDS011;29263;48.172;11.484;2022-10-31T02:24:44;8.27;;;3.80;;
43664;SDS011;29263;48.172;11.484;2022-10-31T02:30:10;10.27;;;3.90;;
43664;SDS011;29263;48.172;11.484;2022-10-31T02:38:34;8.13;;;3.87;;
43664;SDS011;29263;48.172;11.484;2022-10-31T02:41:31;10.20;;;3.40;;
43664;SDS011;29263;48.172;11.484;2022-10-31T02:47:14;7.50;;;3.77;;
43664;SDS011;29263;48.172;11.484;2022-10-31T02:52:20;9.70;;;4.00;;
43664;SDS011;29263;48.172;11.484;2022-10-31T02:54:48;9.93;;;3.97;;
43664;SDS011;29263;48.172;11.484;2022-10-31T02:57:15;11.47;;;4.17;;
43664;SDS011;29263;48.172;11.484;2022-10-31T02:59:48;10.43;;;3.83;;
43664;SDS011;29263;48.172;11.484;2022-10-31T03:04:55;6.63;;;3.80;;
43664;SDS011;29263;48.172;11.484;2022-10-31T03:07:43;8.97;;;3.50;;
43664;SDS011;29263;48.172;11.484;2022-10-31T03:15:49;9.50;;;3.90;;
43664;SDS011;29263;48.172;11.484;2022-10-31T03:21:11;7.10;;;3.70;;
43664;SDS011;29263;48.172;11.484;2022-10-31T03:23:40;9.07;;;3.53;;
43664;SDS011;29263;48.172;11.484;2022-10-31T03:26:08;5.90;;;3.92;;
43664;SDS011;29263;48.172;11.484;2022-10-31T03:28:38;7.83;;;3.50;;
43664;SDS011;29263;48.172;11.484;2022-10-31T03:31:15;7.30;;;3.40;;
43664;SDS011;29263;48.172;11.484;2022-10-31T03:33:43;15.95;;;3.95;;
43664;SDS011;29263;48.172;11.484;2022-10-31T03:36:10;7.73;;;3.50;;
43664;SDS011;29263;48.172;11.484;2022-10-31T03:38:38;9.77;;;4.00;;
43664;SDS011;29263;48.172;11.484;2022-10-31T03:41:06;7.73;;;3.43;;
43664;SDS011;29263;48.172;11.484;2022-10-31T03:43:38;8.97;;;4.10;;
43664;SDS011;29263;48.172;11.484;2022-10-31T03:46:10;6.37;;;3.33;;
43664;SDS011;29263;48.172;11.484;2022-10-31T03:48:36;7.53;;;3.40;;
43664;SDS011;29263;48.172;11.484;2022-10-31T03:57:06;8.13;;;3.77;;
43664;SDS011;29263;48.172;11.484;2022-10-31T03:59:17;8.33;;;3.40;;
43664;SDS011;29263;48.172;11.484;2022-10-31T04:01:49;8.43;;;3.50;;
43664;SDS011;29263;48.172;11.484;2022-10-31T04:06:44;10.70;;;4.37;;
43664;SDS011;29263;48.172;11.484;2022-10-31T04:09:12;14.17;;;4.90;;
43664;SDS011;29263;48.172;11.484;2022-10-31T04:11:43;9.63;;;3.90;;
43664;SDS011;29263;48.172;11.484;2022-10-31T04:14:12;5.63;;;2.93;;
43664;SDS011;29263;48.172;11.484;2022-10-31T04:16:41;8.10;;;4.27;;
43664;SDS011;29263;48.172;11.484;2022-10-31T04:19:08;5.53;;;3.50;;
43664;SDS011;29263;48.172;11.484;2022-10-31T04:21:35;5.57;;;3.07;;
43664;SDS011;29263;48.172;11.484;2022-10-31T04:24:00;6.07;;;3.00;;
43664;SDS011;29263;48.172;11.484;2022-10-31T04:26:26;7.77;;;3.40;;
43664;SDS011;29263;48.172;11.484;2022-10-31T04:28:52;9.73;;;3.50;;
43664;SDS011;29263;48.172;11.484;2022-10-31T04:31:17;7.83;;;3.77;;
43664;SDS011;29263;48.172;11.484;2022-10-31T04:33:43;8.57;;;3.47;;
43664;SDS011;29263;48.172;11.484;2022-10-31T04:36:08;7.63;;;4.23;;
43664;SDS011;29263;48.172;11.484;2022-10-31T04:38:34;6.87;;;4.13;;
43664;SDS011;29263;48.172;11.484;2022-10-31T04:41:00;13.97;;;3.87;;
43664;SDS011;29263;48.172;11.484;2022-10-31T04:43:25;8.53;;;3.23;;
43664;SDS011;29263;48.172;11.484;2022-10-31T04:45:51;9.77;;;3.47;;
43664;SDS011;29263;48.172;11.484;2022-10-31T04:48:16;8.27;;;3.97;;
43664;SDS011;29263;48.172;11.484;2022-10-31T04:50:42;10.77;;;3.67;;
43664;SDS011;29263;48.172;11.484;2022-10-31T04:53:08;9.97;;;3.50;;
43664;SDS011;29263;48.172;11.484;2022-10-31T04:55:34;6.13;;;3.57;;
43664;SDS011;29263;48.172;11.484;2022-10-31T04:58:01;8.70;;;3.40;;
43664;SDS011;29263;48.172;11.484;2022-10-31T05:00:27;8.30;;;3.57;;
43664;SDS011;29263;48.172;11.484;2022-10-31T05:02:53;8.03;;;4.03;;
43664;SDS011;29263;48.172;11.484;2022-10-31T05:05:22;9.30;;;3.20;;
43664;SDS011;29263;48.172;11.484;2022-10-31T05:07:50;6.97;;;3.47;;
43664;SDS011;29263;48.172;11.484;2022-10-31T05:10:17;7.10;;;3.13;;
43664;SDS011;29263;48.172;11.484;2022-10-31T05:12:45;8.33;;;3.43;;
43664;SDS011;29263;48.172;11.484;2022-10-31T05:15:12;8.43;;;3.20;;
43664;SDS011;29263;48.172;11.484;2022-10-31T05:17:38;6.87;;;2.80;;
43664;SDS011;29263;48.172;11.484;2022-10-31T05:20:04;11.50;;;3.60;;
43664;SDS011;29263;48.172;11.484;2022-10-31T05:22:30;9.10;;;3.00;;
43664;SDS011;29263;48.172;11.484;2022-10-31T05:24:56;5.63;;;3.27;;
43664;SDS011;29263;48.172;11.484;2022-10-31T05:27:21;7.93;;;2.90;;
43664;SDS011;29263;48.172;11.484;2022-10-31T05:29:47;11.60;;;3.10;;
43664;SDS011;29263;48.172;11.484;2022-10-31T05:32:12;6.20;;;3.00;;
43664;SDS011;29263;48.172;11.484;2022-10-31T05:34:38;8.83;;;3.50;;
43664;SDS011;29263;48.172;11.484;2022-10-31T05:37:04;4.90;;;2.90;;
43664;SDS011;29263;48.172;11.484;2022-10-31T05:39:29;12.27;;;3.80;;
43664;SDS011;29263;48.172;11.484;2022-10-31T05:41:55;6.67;;;3.43;;
43664;SDS011;29263;48.172;11.484;2022-10-31T05:44:20;8.13;;;3.40;;
43664;SDS011;29263;48.172;11.484;2022-10-31T05:46:46;7.97;;;3.43;;
43664;SDS011;29263;48.172;11.484;2022-10-31T05:49:12;5.43;;;2.90;;
43664;SDS011;29263;48.172;11.484;2022-10-31T05:51:38;5.73;;;3.17;;
43664;SDS011;29263;48.172;11.484;2022-10-31T05:54:03;7.43;;;3.50;;
43664;SDS011;29263;48.172;11.484;2022-10-31T05:56:29;7.00;;;3.63;;
43664;SDS011;29263;48.172;11.484;2022-10-31T05:58:54;9.93;;;4.00;;
43664;SDS011;29263;48.172;11.484;2022-10-31T06:01:20;4.33;;;2.63;;
43664;SDS011;29263;48.172;11.484;2022-10-31T06:03:46;6.40;;;3.20;;
43664;SDS011;29263;48.172;11.484;2022-10-31T06:06:11;5.50;;;3.00;;
43664;SDS011;29263;48.172;11.484;2022-10-31T06:08:37;9.17;;;3.30;;
43664;SDS011;29263;48.172;11.484;2022-10-31T06:11:02;8.10;;;3.50;;
43664;SDS011;29263;48.172;11.484;2022-10-31T06:13:28;5.27;;;3.20;;
43664;SDS011;29263;48.172;11.484;2022-10-31T06:15:54;10.33;;;2.90;;
43664;SDS011;29263;48.172;11.484;2022-10-31T06:18:19;6.87;;;2.90;;
43664;SDS011;29263;48.172;11.484;2022-10-31T06:20:45;7.27;;;2.80;;
43664;SDS011;29263;48.172;11.484;2022-10-31T06:23:10;6.63;;;3.30;;
43664;SDS011;29263;48.172;11.484;2022-10-31T06:25:36;9.33;;;3.77;;
43664;SDS011;29263;48.172;11.484;2022-10-31T06:28:02;6.83;;;3.00;;
43664;SDS011;29263;48.172;11.484;2022-10-31T06:30:27;8.90;;;3.37;;
43664;SDS011;29263;48.172;11.484;2022-10-31T06:32:53;6.57;;;3.00;;
43664;SDS011;29263;48.172;11.484;2022-10-31T06:35:18;7.77;;;2.97;;
43664;SDS011;29263;48.172;11.484;2022-10-31T06:37:51;10.47;;;3.33;;
43664;SDS011;29263;48.172;11.484;2022-10-31T06:40:17;7.40;;;3.30;;
43664;SDS011;29263;48.172;11.484;2022-10-31T06:42:43;6.23;;;3.17;;
43664;SDS011;29263;48.172;11.484;2022-10-31T06:45:08;8.33;;;2.77;;
43664;SDS011;29263;48.172;11.484;2022-10-31T06:47:34;6.10;;;3.07;;
43664;SDS011;29263;48.172;11.484;2022-10-31T06:50:00;10.27;;;3.03;;
43664;SDS011;29263;48.172;11.484;2022-10-31T06:52:25;6.73;;;3.20;;
43664;SDS011;29263;48.172;11.484;2022-10-31T06:54:51;6.70;;;3.23;;
43664;SDS011;29263;48.172;11.484;2022-10-31T06:57:17;7.87;;;3.20;;
43664;SDS011;29263;48.172;11.484;2022-10-31T06:59:42;7.13;;;3.40;;
43664;SDS011;29263;48.172;11.484;2022-10-31T07:02:11;14.17;;;3.40;;
43664;SDS011;29263;48.172;11.484;2022-10-31T07:04:37;6.13;;;2.67;;
43664;SDS011;29263;48.172;11.484;2022-10-31T07:07:02;11.77;;;3.53;;
43664;SDS011;29263;48.172;11.484;2022-10-31T07:09:28;5.37;;;2.63;;
43664;SDS011;29263;48.172;11.484;2022-10-31T07:11:54;7.53;;;2.83;;
43664;SDS011;29263;48.172;11.484;2022-10-31T07:14:19;7.97;;;2.80;;
43664;SDS011;29263;48.172;11.484;2022-10-31T07:16:48;6.90;;;3.13;;
43664;SDS011;29263;48.172;11.484;2022-10-31T07:19:15;9.90;;;3.50;;
43664;SDS011;29263;48.172;11.484;2022-10-31T07:21:41;7.83;;;2.63;;
43664;SDS011;29263;48.172;11.484;2022-10-31T07:24:06;12.47;;;3.33;;
43664;SDS011;29263;48.172;11.484;2022-10-31T07:26:32;7.03;;;3.07;;
43664;SDS011;29263;48.172;11.484;2022-10-31T07:28:58;8.23;;;2.83;;
43664;SDS011;29263;48.172;11.484;2022-10-31T07:31:24;6.90;;;3.20;;
43664;SDS011;29263;48.172;11.484;2022-10-31T07:33:50;6.67;;;3.17;;
43664;SDS011;29263;48.172;11.484;2022-10-31T07:36:16;7.93;;;2.57;;
43664;SDS011;29263;48.172;11.484;2022-10-31T07:38:41;9.13;;;3.20;;
43664;SDS011;29263;48.172;11.484;2022-10-31T07:41:07;5.73;;;2.73;;
43664;SDS011;29263;48.172;11.484;2022-10-31T07:43:33;7.00;;;2.80;;
43664;SDS011;29263;48.172;11.484;2022-10-31T07:45:59;5.87;;;2.80;;
43664;SDS011;29263;48.172;11.484;2022-10-31T07:48:25;4.87;;;2.17;;
43664;SDS011;29263;48.172;11.484;2022-10-31T07:50:50;5.70;;;2.50;;
43664;SDS011;29263;48.172;11.484;2022-10-31T07:53:16;6.67;;;2.77;;
43664;SDS011;29263;48.172;11.484;2022-10-31T07:55:42;6.33;;;2.70;;
43664;SDS011;29263;48.172;11.484;2022-10-31T07:58:10;15.17;;;3.67;;
43664;SDS011;29263;48.172;11.484;2022-10-31T08:00:38;7.90;;;3.53;;
43664;SDS011;29263;48.172;11.484;2022-10-31T08:03:06;9.30;;;3.70;;
43664;SDS011;29263;48.172;11.484;2022-10-31T08:05:33;6.07;;;3.43;;
43664;SDS011;29263;48.172;11.484;2022-10-31T08:07:59;9.37;;;4.37;;
43664;SDS011;29263;48.172;11.484;2022-10-31T08:10:25;10.90;;;4.47;;
43664;SDS011;29263;48.172;11.484;2022-10-31T08:12:55;12.17;;;4.37;;
43664;SDS011;29263;48.172;11.484;2022-10-31T08:15:25;8.50;;;4.07;;
43664;SDS011;29263;48.172;11.484;2022-10-31T08:17:51;11.15;;;4.00;;
43664;SDS011;29263;48.172;11.484;2022-10-31T08:20:18;11.47;;;5.03;;
43664;SDS011;29263;48.172;11.484;2022-10-31T08:22:52;10.63;;;4.57;;
43664;SDS011;29263;48.172;11.484;2022-10-31T08:25:21;11.63;;;4.35;;
43664;SDS011;29263;48.172;11.484;2022-10-31T08:27:51;11.18;;;4.45;;
43664;SDS011;29263;48.172;11.484;2022-10-31T08:30:20;11.93;;;4.97;;
43664;SDS011;29263;48.172;11.484;2022-10-31T08:32:47;18.80;;;6.80;;
43664;SDS011;29263;48.172;11.484;2022-10-31T08:35:21;11.90;;;5.07;;
43664;SDS011;29263;48.172;11.484;2022-10-31T08:37:51;16.13;;;7.13;;
43664;SDS011;29263;48.172;11.484;2022-10-31T08:40:18;12.02;;;5.82;;
43664;SDS011;29263;48.172;11.484;2022-10-31T08:42:43;11.18;;;5.07;;
43664;SDS011;29263;48.172;11.484;2022-10-31T08:45:09;20.60;;;6.90;;
43664;SDS011;29263;48.172;11.484;2022-10-31T08:47:35;18.13;;;5.85;;
43664;SDS011;29263;48.172;11.484;2022-10-31T08:50:01;15.02;;;6.70;;
43664;SDS011;29263;48.172;11.484;2022-10-31T08:52:26;11.23;;;6.22;;
43664;SDS011;29263;48.172;11.484;2022-10-31T08:54:52;14.27;;;6.88;;
43664;SDS011;29263;48.172;11.484;2022-10-31T08:57:17;14.05;;;6.95;;
43664;SDS011;29263;48.172;11.484;2022-10-31T08:59:43;14.05;;;5.63;;
43664;SDS011;29263;48.172;11.484;2022-10-31T09:02:09;12.45;;;6.07;;
43664;SDS011;29263;48.172;11.484;2022-10-31T09:04:34;13.05;;;6.88;;
43664;SDS011;29263;48.172;11.484;2022-10-31T09:07:00;13.50;;;6.72;;
43664;SDS011;29263;48.172;11.484;2022-10-31T09:09:26;16.25;;;7.00;;
43664;SDS011;29263;48.172;11.484;2022-10-31T09:11:54;21.30;;;7.88;;
43664;SDS011;29263;48.172;11.484;2022-10-31T09:14:23;16.45;;;6.68;;
43664;SDS011;29263;48.172;11.484;2022-10-31T09:17:12;15.90;;;7.30;;
43664;SDS011;29263;48.172;11.484;2022-10-31T09:19:51;13.60;;;6.95;;
43664;SDS011;29263;48.172;11.484;2022-10-31T09:22:20;13.85;;;7.20;;
43664;SDS011;29263;48.172;11.484;2022-10-31T09:24:57;13.80;;;6.80;;
43664;SDS011;29263;48.172;11.484;2022-10-31T09:27:28;12.90;;;6.78;;
43664;SDS011;29263;48.172;11.484;2022-10-31T09:30:31;15.55;;;6.57;;
43664;SDS011;29263;48.172;11.484;2022-10-31T09:40:00;11.43;;;6.15;;
43664;SDS011;29263;48.172;11.484;2022-10-31T09:45:10;12.63;;;5.68;;
43664;SDS011;29263;48.172;11.484;2022-10-31T09:50:22;11.50;;;5.03;;
43664;SDS011;29263;48.172;11.484;2022-10-31T09:55:37;11.20;;;4.15;;
43664;SDS011;29263;48.172;11.484;2022-10-31T09:58:08;14.55;;;4.68;;
43664;SDS011;29263;48.172;11.484;2022-10-31T10:00:40;10.02;;;4.78;;
43664;SDS011;29263;48.172;11.484;2022-10-31T10:05:53;8.52;;;4.13;;
43664;SDS011;29263;48.172;11.484;2022-10-31T10:08:38;12.40;;;4.05;;
43664;SDS011;29263;48.172;11.484;2022-10-31T10:16:50;15.27;;;3.58;;
43664;SDS011;29263;48.172;11.484;2022-10-31T10:19:44;10.30;;;3.50;;
43664;SDS011;29263;48.172;11.484;2022-10-31T10:28:20;11.05;;;3.08;;
43664;SDS011;29263;48.172;11.484;2022-10-31T10:31:12;11.25;;;2.63;;
43664;SDS011;29263;48.172;11.484;2022-10-31T10:36:28;14.98;;;2.67;;
43664;SDS011;29263;48.172;11.484;2022-10-31T10:39:34;8.68;;;2.92;;
43664;SDS011;29263;48.172;11.484;2022-10-31T10:42:10;7.18;;;2.97;;
43664;SDS011;29263;48.172;11.484;2022-10-31T10:44:57;10.52;;;2.92;;
43664;SDS011;29263;48.172;11.484;2022-10-31T10:47:44;12.25;;;2.90;;
43664;SDS011;29263;48.172;11.484;2022-10-31T10:50:18;14.13;;;3.22;;
43664;SDS011;29263;48.172;11.484;2022-10-31T10:55:36;9.50;;;1.88;;
43664;SDS011;29263;48.172;11.484;2022-10-31T10:58:18;8.52;;;2.65;;
43664;SDS011;29263;48.172;11.484;2022-10-31T11:00:44;9.80;;;2.17;;
43664;SDS011;29263;48.172;11.484;2022-10-31T11:03:11;7.95;;;2.42;;
43664;SDS011;29263;48.172;11.484;2022-10-31T11:08:07;9.55;;;2.67;;
43664;SDS011;29263;48.172;11.484;2022-10-31T11:10:33;6.75;;;2.08;;
43664;SDS011;29263;48.172;11.484;2022-10-31T11:13:02;7.15;;;2.38;;
43664;SDS011;29263;48.172;11.484;2022-10-31T11:15:49;6.85;;;2.50;;
43664;SDS011;29263;48.172;11.484;2022-10-31T11:18:31;7.72;;;2.85;;
43664;SDS011;29263;48.172;11.484;2022-10-31T11:20:59;7.78;;;1.85;;
43664;SDS011;29263;48.172;11.484;2022-10-31T11:23:28;11.68;;;4.05;;
43664;SDS011;29263;48.172;11.484;2022-10-31T11:26:02;5.93;;;1.70;;
43664;SDS011;29263;48.172;11.484;2022-10-31T11:28:30;7.20;;;2.05;;
43664;SDS011;29263;48.172;11.484;2022-10-31T11:31:00;8.07;;;2.08;;
43664;SDS011;29263;48.172;11.484;2022-10-31T11:33:32;5.70;;;1.63;;
43664;SDS011;29263;48.172;11.484;2022-10-31T11:36:04;6.63;;;1.90;;
43664;SDS011;29263;48.172;11.484;2022-10-31T11:38:46;4.68;;;1.88;;
43664;SDS011;29263;48.172;11.484;2022-10-31T11:41:25;7.95;;;2.05;;
43664;SDS011;29263;48.172;11.484;2022-10-31T11:46:41;5.00;;;1.70;;
43664;SDS011;29263;48.172;11.484;2022-10-31T11:49:15;10.93;;;2.85;;
43664;SDS011;29263;48.172;11.484;2022-10-31T11:51:52;7.38;;;1.83;;
43664;SDS011;29263;48.172;11.484;2022-10-31T11:54:22;4.25;;;1.83;;
43664;SDS011;29263;48.172;11.484;2022-10-31T11:56:54;8.48;;;2.00;;
43664;SDS011;29263;48.172;11.484;2022-10-31T11:59:32;10.57;;;1.65;;
43664;SDS011;29263;48.172;11.484;2022-10-31T12:01:59;4.55;;;1.75;;
43664;SDS011;29263;48.172;11.484;2022-10-31T12:04:30;11.18;;;2.03;;
43664;SDS011;29263;48.172;11.484;2022-10-31T12:07:09;10.40;;;2.13;;
43664;SDS011;29263;48.172;11.484;2022-10-31T12:09:35;10.82;;;2.08;;
43664;SDS011;29263;48.172;11.484;2022-10-31T12:12:22;12.23;;;2.17;;
43664;SDS011;29263;48.172;11.484;2022-10-31T12:17:25;4.87;;;1.73;;
43664;SDS011;29263;48.172;11.484;2022-10-31T12:20:08;8.93;;;1.88;;
43664;SDS011;29263;48.172;11.484;2022-10-31T12:23:01;4.60;;;1.63;;
43664;SDS011;29263;48.172;11.484;2022-10-31T12:32:20;4.22;;;1.70;;
43664;SDS011;29263;48.172;11.484;2022-10-31T12:45:16;7.90;;;1.80;;
43664;SDS011;29263;48.172;11.484;2022-10-31T12:58:45;7.88;;;2.78;;
43664;SDS011;29263;48.172;11.484;2022-10-31T13:01:30;12.10;;;2.45;;
43664;SDS011;29263;48.172;11.484;2022-10-31T13:04:05;6.50;;;1.60;;
43664;SDS011;29263;48.172;11.484;2022-10-31T13:06:40;11.52;;;2.40;;
43664;SDS011;29263;48.172;11.484;2022-10-31T13:09:22;4.63;;;1.92;;
43664;SDS011;29263;48.172;11.484;2022-10-31T13:12:01;6.28;;;1.70;;
43664;SDS011;29263;48.172;11.484;2022-10-31T13:14:33;8.95;;;2.83;;
43664;SDS011;29263;48.172;11.484;2022-10-31T13:17:11;6.47;;;2.30;;
43664;SDS011;29263;48.172;11.484;2022-10-31T13:19:50;10.70;;;2.35;;
43664;SDS011;29263;48.172;11.484;2022-10-31T13:22:21;9.23;;;1.92;;
43664;SDS011;29263;48.172;11.484;2022-10-31T13:24:54;8.18;;;2.55;;
43664;SDS011;29263;48.172;11.484;2022-10-31T13:27:30;6.13;;;2.03;;
43664;SDS011;29263;48.172;11.484;2022-10-31T13:32:49;6.03;;;2.03;;
43664;SDS011;29263;48.172;11.484;2022-10-31T13:35:23;8.75;;;2.10;;
43664;SDS011;29263;48.172;11.484;2022-10-31T13:40:51;10.48;;;2.03;;
43664;SDS011;29263;48.172;11.484;2022-10-31T13:43:41;7.13;;;2.83;;
43664;SDS011;29263;48.172;11.484;2022-10-31T13:49:25;5.78;;;1.83;;
43664;SDS011;29263;48.172;11.484;2022-10-31T13:52:16;9.55;;;1.92;;
43664;SDS011;29263;48.172;11.484;2022-10-31T13:54:48;10.85;;;2.30;;
43664;SDS011;29263;48.172;11.484;2022-10-31T13:57:30;8.75;;;2.08;;
43664;SDS011;29263;48.172;11.484;2022-10-31T14:00:00;9.45;;;2.28;;
43664;SDS011;29263;48.172;11.484;2022-10-31T14:02:33;8.88;;;2.00;;
43664;SDS011;29263;48.172;11.484;2022-10-31T14:07:26;3.95;;;1.33;;
43664;SDS011;29263;48.172;11.484;2022-10-31T14:10:03;8.55;;;2.03;;
43664;SDS011;29263;48.172;11.484;2022-10-31T14:12:40;8.30;;;2.05;;
43664;SDS011;29263;48.172;11.484;2022-10-31T14:17:55;5.10;;;1.50;;
43664;SDS011;29263;48.172;11.484;2022-10-31T14:28:45;8.95;;;2.90;;
43664;SDS011;29263;48.172;11.484;2022-10-31T14:34:01;7.75;;;2.40;;
43664;SDS011;29263;48.172;11.484;2022-10-31T14:36:36;8.77;;;1.95;;
43664;SDS011;29263;48.172;11.484;2022-10-31T14:39:31;10.00;;;3.03;;
43664;SDS011;29263;48.172;11.484;2022-10-31T14:47:36;7.78;;;2.45;;
43664;SDS011;29263;48.172;11.484;2022-10-31T14:50:37;8.25;;;2.28;;
43664;SDS011;29263;48.172;11.484;2022-10-31T14:53:06;6.15;;;2.15;;
43664;SDS011;29263;48.172;11.484;2022-10-31T14:55:57;8.77;;;2.47;;
43664;SDS011;29263;48.172;11.484;2022-10-31T14:58:25;6.78;;;2.22;;
43664;SDS011;29263;48.172;11.484;2022-10-31T15:00:58;7.35;;;2.40;;
43664;SDS011;29263;48.172;11.484;2022-10-31T15:05:55;5.38;;;2.20;;
43664;SDS011;29263;48.172;11.484;2022-10-31T15:08:31;7.10;;;2.37;;
43664;SDS011;29263;48.172;11.484;2022-10-31T15:11:03;8.45;;;2.67;;
43664;SDS011;29263;48.172;11.484;2022-10-31T15:13:40;11.13;;;2.10;;
43664;SDS011;29263;48.172;11.484;2022-10-31T15:16:14;6.03;;;2.72;;
43664;SDS011;29263;48.172;11.484;2022-10-31T15:18:47;7.38;;;2.83;;
43664;SDS011;29263;48.172;11.484;2022-10-31T15:21:22;12.55;;;2.30;;
43664;SDS011;29263;48.172;11.484;2022-10-31T15:23:51;7.70;;;2.78;;
43664;SDS011;29263;48.172;11.484;2022-10-31T15:26:19;13.07;;;2.90;;
43664;SDS011;29263;48.172;11.484;2022-10-31T15:28:57;8.70;;;3.20;;
43664;SDS011;29263;48.172;11.484;2022-10-31T15:31:52;8.57;;;3.90;;
43664;SDS011;29263;48.172;11.484;2022-10-31T15:36:48;10.80;;;2.88;;
43664;SDS011;29263;48.172;11.484;2022-10-31T15:39:17;9.88;;;3.63;;
43664;SDS011;29263;48.172;11.484;2022-10-31T15:44:30;7.47;;;4.03;;
43664;SDS011;29263;48.172;11.484;2022-10-31T15:47:01;10.43;;;3.22;;
43664;SDS011;29263;48.172;11.484;2022-10-31T15:52:06;16.85;;;3.72;;
43664;SDS011;29263;48.172;11.484;2022-10-31T15:54:50;12.05;;;3.30;;
43664;SDS011;29263;48.172;11.484;2022-10-31T15:57:19;10.02;;;3.25;;
43664;SDS011;29263;48.172;11.484;2022-10-31T15:59:45;7.63;;;3.40;;
43664;SDS011;29263;48.172;11.484;2022-10-31T16:02:13;7.57;;;3.33;;
43664;SDS011;29263;48.172;11.484;2022-10-31T16:05:17;8.27;;;3.58;;
43664;SDS011;29263;48.172;11.484;2022-10-31T16:07:47;10.13;;;3.33;;
43664;SDS011;29263;48.172;11.484;2022-10-31T16:10:21;8.77;;;3.10;;
43664;SDS011;29263;48.172;11.484;2022-10-31T16:12:48;6.43;;;3.03;;
43664;SDS011;29263;48.172;11.484;2022-10-31T16:15:15;11.93;;;3.20;;
43664;SDS011;29263;48.172;11.484;2022-10-31T16:17:42;11.68;;;3.80;;
43664;SDS011;29263;48.172;11.484;2022-10-31T16:20:47;15.93;;;4.20;;
43664;SDS011;29263;48.172;11.484;2022-10-31T16:23:02;11.68;;;4.10;;
43664;SDS011;29263;48.172;11.484;2022-10-31T16:25:29;10.02;;;5.07;;
43664;SDS011;29263;48.172;11.484;2022-10-31T16:28:03;14.35;;;4.25;;
43664;SDS011;29263;48.172;11.484;2022-10-31T16:30:38;10.35;;;3.90;;
43664;SDS011;29263;48.172;11.484;2022-10-31T16:33:10;6.75;;;3.55;;
43664;SDS011;29263;48.172;11.484;2022-10-31T16:35:51;12.85;;;3.88;;
43664;SDS011;29263;48.172;11.484;2022-10-31T16:38:17;9.77;;;4.32;;
43664;SDS011;29263;48.172;11.484;2022-10-31T16:40:43;7.75;;;4.00;;
43664;SDS011;29263;48.172;11.484;2022-10-31T16:43:12;10.27;;;3.70;;
43664;SDS011;29263;48.172;11.484;2022-10-31T16:45:52;11.45;;;4.78;;
43664;SDS011;29263;48.172;11.484;2022-10-31T16:48:18;11.07;;;4.30;;
43664;SDS011;29263;48.172;11.484;2022-10-31T16:50:46;9.95;;;4.40;;
43664;SDS011;29263;48.172;11.484;2022-10-31T16:53:13;10.07;;;4.53;;
43664;SDS011;29263;48.172;11.484;2022-10-31T16:55:54;11.63;;;5.07;;
43664;SDS011;29263;48.172;11.484;2022-10-31T16:58:39;11.18;;;5.35;;
43664;SDS011;29263;48.172;11.484;2022-10-31T17:04:24;15.15;;;5.28;;
43664;SDS011;29263;48.172;11.484;2022-10-31T17:06:56;12.02;;;5.20;;
43664;SDS011;29263;48.172;11.484;2022-10-31T17:09:27;9.40;;;4.47;;
43664;SDS011;29263;48.172;11.484;2022-10-31T17:11:56;11.88;;;5.80;;
43664;SDS011;29263;48.172;11.484;2022-10-31T17:14:26;9.65;;;5.47;;
43664;SDS011;29263;48.172;11.484;2022-10-31T17:16:55;11.43;;;4.30;;
43664;SDS011;29263;48.172;11.484;2022-10-31T17:19:23;9.02;;;4.68;;
43664;SDS011;29263;48.172;11.484;2022-10-31T17:22:01;12.90;;;4.90;;
43664;SDS011;29263;48.172;11.484;2022-10-31T17:24:26;11.85;;;5.80;;